Time;durP1;ratioP1;P1;durP2;ratioP2;P2;SDS_P1;SDS_P2;PMS_P1;PMS_P2;Temp;Humidity;BMP_temperature;BMP_pressure;BME280_temperature;BME280_humidity;BME280_pressure;Samples;Min_cycle;Max_cycle;Signal;HPM_P1;HPM_P2
2023/01/10 00:00:35;;;;;;;21.33;6.38;;;;;;;-146.25;100.00;52506.06;2080315;28;36339;-74
2023/01/10 00:01:37;;;;;;;17.23;5.65;;;;;;;-146.25;100.00;52510.13;2079444;28;39436;-74
2023/01/10 00:02:39;;;;;;;17.60;5.90;;;;;;;-146.25;100.00;52534.47;2079749;28;38717;-74
2023/01/10 00:03:41;;;;;;;21.55;5.93;;;;;;;-146.25;100.00;52493.91;2079772;28;42653;-75
2023/01/10 00:04:42;;;;;;;17.10;5.72;;;;;;;-146.25;100.00;52477.69;2079649;28;35251;-74
2023/01/10 00:05:47;;;;;;;18.42;6.40;;;;;;;-146.25;100.00;52473.63;2079387;28;37901;-74
2023/01/10 00:06:49;;;;;;;16.50;6.28;;;;;;;-146.25;100.00;52493.91;2079933;28;41993;-74
2023/01/10 00:07:50;;;;;;;18.63;5.70;;;;;;;-146.25;100.00;52475.66;2080712;28;25030;-75
2023/01/10 00:08:52;;;;;;;17.17;5.80;;;;;;;-146.25;100.00;52528.38;2079706;28;39637;-75
2023/01/10 00:09:54;;;;;;;26.10;5.88;;;;;;;-146.25;100.00;52469.56;2080314;28;39334;-75
2023/01/10 00:10:55;;;;;;;19.70;5.72;;;;;;;-146.25;100.00;52506.06;2080523;28;20054;-75
2023/01/10 00:13:22;;;;;;;17.88;5.55;;;;;;;-146.25;100.00;52502.03;2079951;28;38970;-73
2023/01/10 00:14:27;;;;;;;19.20;5.90;;;;;;;-146.25;100.00;52475.66;2080598;28;20049;-73
2023/01/10 00:15:33;;;;;;;15.52;5.78;;;;;;;-146.25;100.00;52502.03;2080308;28;20153;-73
2023/01/10 00:16:38;;;;;;;14.00;5.70;;;;;;;-146.25;100.00;52502.03;2079937;28;20862;-73
2023/01/10 00:17:41;;;;;;;16.67;6.03;;;;;;;-146.25;100.00;52487.81;2079170;28;37852;-74
2023/01/10 00:18:43;;;;;;;23.02;6.15;;;;;;;-146.25;100.00;52493.91;2079692;28;39053;-74
2023/01/10 00:19:45;;;;;;;17.80;5.35;;;;;;;-146.25;100.00;52489.84;2080464;28;20938;-74
2023/01/10 00:20:48;;;;;;;16.13;5.47;;;;;;;-146.25;100.00;52497.97;2079988;28;38379;-74
2023/01/10 00:21:50;;;;;;;16.17;5.32;;;;;;;-146.25;100.00;52504.03;2079698;28;37522;-73
2023/01/10 00:22:51;;;;;;;18.63;4.93;;;;;;;-146.25;100.00;52489.84;2079647;28;40853;-74
2023/01/10 00:23:53;;;;;;;16.60;5.50;;;;;;;-146.25;100.00;52477.69;2079231;28;38397;-74
2023/01/10 00:24:55;;;;;;;13.57;4.35;;;;;;;-146.25;100.00;52489.84;2079528;28;39856;-74
2023/01/10 00:25:56;;;;;;;13.23;5.00;;;;;;;-146.25;100.00;52469.56;2079414;28;40433;-73
2023/01/10 00:26:58;;;;;;;15.95;4.40;;;;;;;-146.25;100.00;52497.97;2080266;28;20038;-74
2023/01/10 00:29:24;;;;;;;16.60;5.03;;;;;;;-146.25;100.00;52518.25;2080178;28;34987;-74
2023/01/10 00:30:29;;;;;;;14.65;4.75;;;;;;;-146.25;100.00;52512.16;2080192;28;20935;-74
2023/01/10 00:31:31;;;;;;;16.67;4.40;;;;;;;-146.25;100.00;52489.84;2072215;28;39658;-72
2023/01/10 00:32:33;;;;;;;14.68;4.43;;;;;;;-146.25;100.00;52524.31;2071871;28;39845;-73
2023/01/10 00:33:35;;;;;;;17.05;4.57;;;;;;;-146.25;100.00;52518.25;2080551;28;20069;-73
2023/01/10 00:34:37;;;;;;;12.25;3.97;;;;;;;-146.25;100.00;52506.06;2079107;28;42027;-75
2023/01/10 00:35:39;;;;;;;15.38;4.75;;;;;;;-146.25;100.00;52502.03;2079900;28;37616;-75
2023/01/10 00:36:46;;;;;;;12.13;4.25;;;;;;;-146.25;100.00;52481.75;2079255;28;38247;-75
2023/01/10 00:37:50;;;;;;;11.75;4.07;;;;;;;-146.25;100.00;52495.94;2072451;28;39037;-74
2023/01/10 00:38:52;;;;;;;14.02;4.38;;;;;;;-146.25;100.00;52483.78;2080009;28;20588;-75
2023/01/10 00:39:54;;;;;;;14.77;3.92;;;;;;;-146.25;100.00;52481.75;2079934;28;43755;-75
2023/01/10 00:40:56;;;;;;;13.93;3.80;;;;;;;-146.25;100.00;52489.84;2079959;28;37651;-75
2023/01/10 00:44:41;;;;;;;15.85;3.92;;;;;;;-146.25;100.00;52514.19;2079664;28;20081;-74
2023/01/10 00:45:47;;;;;;;11.93;3.63;;;;;;;-146.25;100.00;52473.63;2079518;28;40606;-74
2023/01/10 00:46:48;;;;;;;12.40;4.03;;;;;;;-146.25;100.00;52548.66;2079012;28;39969;-74
2023/01/10 00:47:51;;;;;;;10.90;3.97;;;;;;;-146.25;100.00;52512.16;2080291;28;37662;-75
2023/01/10 00:48:52;;;;;;;15.45;4.18;;;;;;;-146.25;100.00;52520.28;2079822;28;40896;-74
2023/01/10 00:49:54;;;;;;;10.52;3.65;;;;;;;-146.25;100.00;52493.91;2079567;28;38249;-75
2023/01/10 00:50:56;;;;;;;12.00;3.60;;;;;;;-146.25;100.00;52510.13;2078712;28;36927;-75
2023/01/10 00:51:58;;;;;;;11.55;4.03;;;;;;;-146.25;100.00;52510.13;2080810;28;20787;-75
2023/01/10 00:53:02;;;;;;;13.23;3.83;;;;;;;-146.25;100.00;52522.28;2079416;28;39893;-75
2023/01/10 00:54:04;;;;;;;15.73;4.10;;;;;;;-146.25;100.00;52504.03;2079633;28;34890;-74
2023/01/10 00:55:06;;;;;;;12.73;3.85;;;;;;;-146.25;100.00;52489.84;2079444;28;36654;-73
2023/01/10 00:56:08;;;;;;;16.75;4.22;;;;;;;-146.25;100.00;52489.84;2080980;28;20038;-74
2023/01/10 00:57:10;;;;;;;13.32;3.97;;;;;;;-146.25;100.00;52514.19;2079420;28;40730;-73
2023/01/10 00:58:16;;;;;;;9.57;3.63;;;;;;;-146.25;100.00;52500.00;2080253;28;40157;-75
2023/01/10 00:59:18;;;;;;;15.65;3.70;;;;;;;-146.25;100.00;52473.63;2080021;28;41182;-73
2023/01/10 01:00:22;;;;;;;13.05;4.05;;;;;;;-146.25;100.00;52518.25;2080103;28;39900;-73
2023/01/10 01:01:23;;;;;;;12.82;4.03;;;;;;;-146.25;100.00;52514.19;2079279;28;38272;-74
2023/01/10 01:02:25;;;;;;;14.88;3.40;;;;;;;-146.25;100.00;52516.22;2079590;28;32602;-73
2023/01/10 01:03:29;;;;;;;12.15;3.75;;;;;;;-146.25;100.00;52477.69;2079138;28;40829;-73
2023/01/10 01:04:33;;;;;;;13.95;3.92;;;;;;;-146.25;100.00;52502.03;2079739;28;39628;-75
2023/01/10 01:05:45;;;;;;;11.65;3.58;;;;;;;-146.25;100.00;52514.19;2079526;28;36594;-75
2023/01/10 01:06:47;;;;;;;14.75;3.85;;;;;;;-146.25;100.00;52506.06;2079517;28;41595;-73
2023/01/10 01:07:54;;;;;;;10.07;3.45;;;;;;;-146.25;100.00;52481.75;2079944;28;20921;-74
2023/01/10 01:08:55;;;;;;;11.35;3.40;;;;;;;-146.25;100.00;52491.88;2079901;28;41290;-74
2023/01/10 01:11:17;;;;;;;11.93;3.38;;;;;;;-146.25;100.00;52508.09;2079991;28;40626;-75
2023/01/10 01:12:21;;;;;;;9.50;3.10;;;;;;;-146.25;100.00;52465.53;2079596;28;41582;-75
2023/01/10 01:13:24;;;;;;;11.15;3.10;;;;;;;-146.25;100.00;52497.97;2079262;28;38938;-74
2023/01/10 01:14:26;;;;;;;15.07;3.72;;;;;;;-146.25;100.00;52512.16;2078746;28;41963;-74
2023/01/10 01:15:27;;;;;;;17.23;3.78;;;;;;;-146.25;100.00;52497.97;2079875;28;42088;-74
2023/01/10 01:16:29;;;;;;;11.85;3.15;;;;;;;-146.25;100.00;52506.06;2079511;28;39736;-74
2023/01/10 01:17:31;;;;;;;11.05;3.55;;;;;;;-146.25;100.00;52457.41;2079602;28;42196;-75
2023/01/10 01:18:35;;;;;;;9.02;3.28;;;;;;;-146.25;100.00;52495.94;2079669;28;38105;-76
2023/01/10 01:19:36;;;;;;;15.65;4.13;;;;;;;-146.25;100.00;52512.16;2071816;28;30975;-74
2023/01/10 01:20:40;;;;;;;14.73;3.33;;;;;;;-146.25;100.00;52489.84;2079052;28;41938;-74
2023/01/10 01:21:41;;;;;;;11.55;3.35;;;;;;;-146.25;100.00;52489.84;2079468;28;37108;-75
2023/01/10 01:22:43;;;;;;;11.70;3.42;;;;;;;-146.25;100.00;52518.25;2079639;28;39313;-75
2023/01/10 01:23:45;;;;;;;13.20;3.35;;;;;;;-146.25;100.00;52489.84;2079014;28;41374;-75
2023/01/10 01:24:49;;;;;;;8.25;2.65;;;;;;;-146.25;100.00;52514.19;2078325;28;37363;-74
2023/01/10 01:25:56;;;;;;;12.82;2.72;;;;;;;-146.25;100.00;52467.56;2078874;28;37875;-75
2023/01/10 01:26:57;;;;;;;9.07;2.83;;;;;;;-146.25;100.00;52506.06;2079521;28;38270;-74
2023/01/10 01:27:59;;;;;;;10.95;2.85;;;;;;;-146.25;100.00;52506.06;2079773;28;38994;-74
2023/01/10 01:29:00;;;;;;;14.60;3.13;;;;;;;-146.25;100.00;52471.59;2079546;28;39068;-74
2023/01/10 01:30:05;;;;;;;13.60;2.95;;;;;;;-146.25;100.00;52489.84;2079858;28;40405;-74
2023/01/10 01:31:08;;;;;;;12.00;2.88;;;;;;;-146.25;100.00;52473.63;2080722;28;20041;-74
2023/01/10 01:32:11;;;;;;;11.80;2.63;;;;;;;-146.25;100.00;52514.19;2080034;28;37488;-74
2023/01/10 01:33:14;;;;;;;10.82;2.60;;;;;;;-146.25;100.00;52493.91;2079458;28;40852;-74
2023/01/10 01:34:16;;;;;;;8.88;2.75;;;;;;;-146.25;100.00;52479.72;2080218;28;20045;-74
2023/01/10 01:35:21;;;;;;;15.07;2.78;;;;;;;-146.25;100.00;52510.13;2079246;28;39950;-74
2023/01/10 01:36:24;;;;;;;14.38;2.47;;;;;;;-146.25;100.00;52506.06;2079576;28;40032;-74
2023/01/10 01:37:26;;;;;;;13.40;2.67;;;;;;;-146.25;100.00;52546.63;2079654;28;38353;-74
2023/01/10 01:38:28;;;;;;;8.25;2.03;;;;;;;-146.25;100.00;52491.88;2078737;28;40524;-74
2023/01/10 01:39:30;;;;;;;8.95;2.60;;;;;;;-146.25;100.00;52469.56;2079107;28;38887;-74
2023/01/10 01:40:31;;;;;;;9.05;2.15;;;;;;;-146.25;100.00;52469.56;2079095;28;39821;-74
2023/01/10 01:42:56;;;;;;;13.13;2.15;;;;;;;-146.25;100.00;52497.97;2079807;28;39965;-75
2023/01/10 01:44:03;;;;;;;7.40;2.40;;;;;;;-146.25;100.00;52485.81;2079792;28;35656;-75
2023/01/10 01:45:12;;;;;;;11.43;2.15;;;;;;;-146.25;100.00;52479.72;2078721;28;38878;-76
2023/01/10 01:46:14;;;;;;;12.23;2.45;;;;;;;-146.25;100.00;52500.00;2080134;28;39159;-76
2023/01/10 01:48:03;;;;;;;8.50;2.30;;;;;;;-146.25;100.00;52487.81;2078552;28;39385;-75
2023/01/10 01:49:14;;;;;;;10.35;1.80;;;;;;;-146.25;100.00;52502.03;2065056;28;40905;-75
2023/01/10 01:50:31;;;;;;;9.38;2.28;;;;;;;-146.25;100.00;52489.84;2079153;28;41420;-76
2023/01/10 01:51:33;;;;;;;12.07;2.03;;;;;;;-146.25;100.00;52491.88;2079536;28;20058;-76
2023/01/10 01:52:37;;;;;;;10.70;2.22;;;;;;;-146.25;100.00;52518.25;2078820;28;42510;-76
2023/01/10 01:53:47;;;;;;;11.50;1.98;;;;;;;-146.25;100.00;52489.84;2071125;28;37790;-76
2023/01/10 01:54:50;;;;;;;12.73;2.28;;;;;;;-146.25;100.00;52524.31;2079506;28;38816;-76
2023/01/10 01:55:59;;;;;;;17.60;2.38;;;;;;;-146.25;100.00;52520.28;2080375;28;20892;-76
2023/01/10 01:57:17;;;;;;;9.32;2.00;;;;;;;-146.25;100.00;52504.03;2079618;28;20034;-76
2023/01/10 01:58:28;;;;;;;8.88;2.33;;;;;;;-146.25;100.00;52514.19;2079342;28;41340;-76
2023/01/10 01:59:41;;;;;;;13.30;2.17;;;;;;;-146.25;100.00;52516.22;2078722;28;40438;-76
2023/01/10 02:00:47;;;;;;;13.23;2.10;;;;;;;-146.25;100.00;52475.66;2073928;28;40062;-76
2023/01/10 02:01:53;;;;;;;7.25;1.95;;;;;;;-146.25;100.00;52477.69;2078848;28;39422;-76
2023/01/10 02:02:59;;;;;;;10.63;2.20;;;;;;;-146.25;100.00;52495.94;2079191;28;38022;-76
2023/01/10 02:04:17;;;;;;;9.77;2.08;;;;;;;-146.25;100.00;52520.28;2071485;28;38438;-76
2023/01/10 02:05:23;;;;;;;13.05;2.35;;;;;;;-146.25;100.00;52502.03;2073844;28;38773;-76
2023/01/10 02:06:25;;;;;;;8.50;2.25;;;;;;;-146.25;100.00;52506.06;2070875;28;43402;-75
2023/01/10 02:07:33;;;;;;;14.63;2.58;;;;;;;-146.25;100.00;52481.75;2079356;28;35400;-76
2023/01/10 02:08:44;;;;;;;8.80;1.90;;;;;;;-146.25;100.00;52512.16;2080551;28;20930;-76
2023/01/10 02:09:51;;;;;;;10.80;2.08;;;;;;;-146.25;100.00;52516.22;2078440;28;40057;-76
2023/01/10 02:11:09;;;;;;;9.13;2.10;;;;;;;-146.25;100.00;52528.38;2080901;28;20144;-76
2023/01/10 02:12:13;;;;;;;7.40;1.85;;;;;;;-146.25;100.00;52461.47;2078613;28;40141;-76
2023/01/10 02:13:18;;;;;;;13.90;2.17;;;;;;;-146.25;100.00;52485.81;2072173;28;37780;-76
2023/01/10 02:14:22;;;;;;;9.35;1.95;;;;;;;-146.25;100.00;52522.28;2071072;28;44678;-76
2023/01/10 02:15:23;;;;;;;9.43;1.95;;;;;;;-146.25;100.00;52487.81;2080058;28;40571;-76
2023/01/10 02:16:25;;;;;;;12.70;2.22;;;;;;;-146.25;100.00;52518.25;2087129;28;24241;-76
2023/01/10 02:17:27;;;;;;;16.42;2.40;;;;;;;-146.25;100.00;52520.28;2079549;28;40291;-76
2023/01/10 02:18:29;;;;;;;15.18;2.42;;;;;;;-146.25;100.00;52504.03;2078567;28;41008;-76
2023/01/10 02:19:50;;;;;;;16.00;2.30;;;;;;;-146.25;100.00;52455.38;2070655;28;39819;-76
2023/01/10 02:21:44;;;;;;;14.10;2.00;;;;;;;-146.25;100.00;52564.88;2079177;28;41075;-76
2023/01/10 02:23:04;;;;;;;11.15;2.05;;;;;;;-146.25;100.00;52524.31;2078456;28;35287;-76
2023/01/10 02:24:56;;;;;;;18.83;2.45;;;;;;;-146.25;100.00;52495.94;2079246;28;43615;-76
2023/01/10 02:26:38;;;;;;;13.00;1.95;;;;;;;-146.25;100.00;52508.09;2079857;28;38677;-76
2023/01/10 02:28:07;;;;;;;10.43;1.80;;;;;;;-146.25;100.00;52546.63;2079521;28;39299;-76
2023/01/10 02:29:36;;;;;;;13.48;2.28;;;;;;;-146.25;100.00;52479.72;2079378;28;42873;-76
2023/01/10 02:31:25;;;;;;;11.63;2.17;;;;;;;-146.25;100.00;52463.50;2079727;28;20034;-76
2023/01/10 02:32:38;;;;;;;10.23;1.67;;;;;;;-146.25;100.00;52510.13;2087569;28;41273;-77
2023/01/10 02:34:24;;;;;;;15.15;2.10;;;;;;;-146.25;100.00;52495.94;2085985;28;20042;-76
2023/01/10 02:36:22;;;;;;;11.35;1.73;;;;;;;-146.25;100.00;52481.75;2079534;28;43894;-76
2023/01/10 02:37:43;;;;;;;15.57;1.75;;;;;;;-146.25;100.00;52516.22;2070852;28;39364;-77
2023/01/10 02:39:11;;;;;;;15.82;2.13;;;;;;;-146.25;100.00;52477.69;2080873;28;39435;-76
2023/01/10 02:40:42;;;;;;;27.25;3.05;;;;;;;-146.25;100.00;52467.56;2080438;28;41718;-77
2023/01/10 02:42:22;;;;;;;14.38;2.30;;;;;;;-146.25;100.00;52497.97;2080059;28;21584;-76
2023/01/10 02:43:35;;;;;;;13.65;1.98;;;;;;;-146.25;100.00;52510.13;2080711;28;41241;-77
2023/01/10 02:44:58;;;;;;;17.48;2.97;;;;;;;-146.25;100.00;52510.13;2080098;28;40581;-76
2023/01/10 02:46:10;;;;;;;9.55;1.85;;;;;;;-146.25;100.00;52491.88;2080443;28;41766;-76
2023/01/10 02:47:13;;;;;;;11.43;2.22;;;;;;;-146.25;100.00;52500.00;2079872;28;42852;-77
2023/01/10 02:48:17;;;;;;;15.30;1.98;;;;;;;-146.25;100.00;52522.28;2072819;28;43102;-76
2023/01/10 02:49:19;;;;;;;17.95;2.40;;;;;;;-146.25;100.00;52506.06;2072414;28;38186;-77
2023/01/10 02:50:43;;;;;;;18.33;2.05;;;;;;;-146.25;100.00;52516.22;2080228;28;41934;-77
2023/01/10 02:51:45;;;;;;;12.57;2.35;;;;;;;-146.25;100.00;52552.72;2080877;28;43038;-77
2023/01/10 02:52:46;;;;;;;12.45;2.15;;;;;;;-146.25;100.00;52489.84;2079835;28;40595;-77
2023/01/10 02:54:01;;;;;;;13.30;1.88;;;;;;;-146.25;100.00;52510.13;2080146;28;35614;-77
2023/01/10 02:55:03;;;;;;;13.68;2.05;;;;;;;-146.25;100.00;52510.13;2082064;28;20108;-77
2023/01/10 02:56:48;;;;;;;15.30;2.00;;;;;;;-146.25;100.00;52518.25;2079844;28;40304;-76
2023/01/10 02:58:17;;;;;;;18.08;2.42;;;;;;;-146.25;100.00;52461.47;2077783;28;38491;-76
2023/01/10 02:59:43;;;;;;;14.90;1.83;;;;;;;-146.25;100.00;52495.94;2075927;28;41754;-77
2023/01/10 03:01:07;;;;;;;14.82;1.58;;;;;;;-146.25;100.00;52510.13;2077788;28;38569;-76
2023/01/10 03:02:32;;;;;;;15.38;2.03;;;;;;;-146.25;100.00;52548.66;2072733;28;20148;-77
2023/01/10 03:03:49;;;;;;;15.70;2.00;;;;;;;-146.25;100.00;52534.47;2080430;28;38399;-77
2023/01/10 03:05:36;;;;;;;13.20;1.90;;;;;;;-146.25;100.00;52544.59;2081061;28;20604;-77
2023/01/10 03:07:00;;;;;;;16.20;2.20;;;;;;;-146.25;100.00;52493.91;2080456;28;44598;-77
2023/01/10 03:08:26;;;;;;;12.05;1.80;;;;;;;-146.25;100.00;52510.13;2079902;28;38740;-77
2023/01/10 03:09:37;;;;;;;21.27;2.30;;;;;;;-146.25;100.00;52510.13;2080898;28;20046;-78
2023/01/10 03:10:51;;;;;;;;;;;;;;;-146.25;100.00;52526.34;2080657;28;36047;-77
2023/01/10 03:12:08;;;;;;;11.90;1.70;;;;;;;-146.25;100.00;52510.13;2080406;28;44590;-77
2023/01/10 03:13:23;;;;;;;19.35;2.22;;;;;;;-146.25;100.00;52489.84;2080141;28;36693;-77
2023/01/10 03:14:29;;;;;;;12.32;2.15;;;;;;;-146.25;100.00;52502.03;2076452;28;20842;-77
2023/01/10 03:15:37;;;;;;;13.85;1.80;;;;;;;-146.25;100.00;52491.88;2073937;28;40005;-77
2023/01/10 03:16:42;;;;;;;18.63;2.20;;;;;;;-146.25;100.00;52510.13;2081407;28;37733;-77
2023/01/10 03:17:53;;;;;;;19.10;2.30;;;;;;;-146.25;100.00;52522.28;2071546;28;40677;-77
2023/01/10 03:19:00;;;;;;;;;;;;;;;-146.25;100.00;52502.03;2074186;28;42234;-76
2023/01/10 03:20:06;;;;;;;14.70;1.92;;;;;;;-146.25;100.00;52479.72;2080867;28;19928;-76
2023/01/10 03:21:10;;;;;;;15.98;2.53;;;;;;;-146.25;100.00;52497.97;2079738;28;40215;-77
2023/01/10 03:22:13;;;;;;;11.90;2.10;;;;;;;-146.25;100.00;52542.56;2072488;28;37469;-76
2023/01/10 03:23:16;;;;;;;15.60;2.03;;;;;;;-146.25;100.00;52514.19;2079494;28;36396;-77
2023/01/10 03:24:29;;;;;;;19.30;2.60;;;;;;;-146.25;100.00;52489.84;2080179;28;40796;-76
2023/01/10 03:25:35;;;;;;;14.43;2.10;;;;;;;-146.25;100.00;52520.28;2079375;28;44849;-77
2023/01/10 03:26:50;;;;;;;20.33;2.67;;;;;;;-146.25;100.00;52579.06;2072965;28;37325;-77
2023/01/10 03:28:16;;;;;;;12.48;2.35;;;;;;;-146.25;100.00;52546.63;2080288;28;40455;-77
2023/01/10 03:29:27;;;;;;;14.63;2.55;;;;;;;-146.25;100.00;52514.19;2080389;28;41932;-76
2023/01/10 03:30:45;;;;;;;14.48;2.70;;;;;;;-146.25;100.00;52481.75;2080841;28;39956;-76
2023/01/10 03:31:55;;;;;;;21.92;2.42;;;;;;;-146.25;100.00;52493.91;2079724;28;42483;-77
2023/01/10 03:32:58;;;;;;;18.17;2.70;;;;;;;-146.25;100.00;52510.13;2073936;28;42760;-75
2023/01/10 03:34:01;;;;;;;17.20;2.70;;;;;;;-146.25;100.00;52479.72;2072924;28;34211;-75
2023/01/10 03:35:06;;;;;;;20.42;2.30;;;;;;;-146.25;100.00;52487.81;2079763;28;40083;-75
2023/01/10 03:36:34;;;;;;;15.43;2.38;;;;;;;-146.25;100.00;52497.97;2081535;28;20926;-75
2023/01/10 03:38:00;;;;;;;20.20;2.83;;;;;;;-146.25;100.00;52502.03;2064023;28;41378;-74
2023/01/10 03:39:08;;;;;;;14.30;2.72;;;;;;;-146.25;100.00;52542.56;2080199;28;38152;-74
2023/01/10 03:40:21;;;;;;;18.58;2.40;;;;;;;-146.25;100.00;52536.50;2080231;28;41111;-76
2023/01/10 03:41:49;;;;;;;17.83;2.53;;;;;;;-146.25;100.00;52500.00;2080452;28;41032;-76
2023/01/10 03:45:12;;;;;;;15.13;2.72;;;;;;;-146.25;100.00;52506.06;2072072;28;39998;-76
2023/01/10 03:46:31;;;;;;;16.60;2.20;;;;;;;-146.25;100.00;52497.97;2071241;28;41985;-75
2023/01/10 03:47:45;;;;;;;12.98;2.03;;;;;;;-146.25;100.00;52536.50;2066067;28;39621;-76
2023/01/10 03:48:48;;;;;;;13.50;2.38;;;;;;;-146.25;100.00;52522.28;2058741;28;45054;-74
2023/01/10 03:49:58;;;;;;;18.17;2.67;;;;;;;-146.25;100.00;52485.81;2064397;28;37626;-75
2023/01/10 03:51:03;;;;;;;18.15;2.45;;;;;;;-146.25;100.00;52500.00;2072217;28;43643;-75
2023/01/10 03:52:09;;;;;;;17.23;2.55;;;;;;;-146.25;100.00;52483.78;2062819;28;39689;-77
2023/01/10 03:53:14;;;;;;;12.32;1.95;;;;;;;-146.25;100.00;52512.16;2057337;28;42962;-75
2023/01/10 03:54:16;;;;;;;15.25;2.33;;;;;;;-146.25;100.00;52483.78;2064108;28;31228;-75
2023/01/10 03:55:25;;;;;;;17.92;2.40;;;;;;;-146.25;100.00;52500.00;2072122;28;41855;-75
2023/01/10 03:56:27;;;;;;;13.00;2.28;;;;;;;-146.25;100.00;52514.19;2071283;28;36870;-74
2023/01/10 03:57:29;;;;;;;17.08;2.45;;;;;;;-146.25;100.00;52504.03;2071952;28;37421;-77
2023/01/10 03:58:30;;;;;;;13.15;2.28;;;;;;;-146.25;100.00;52489.84;2071752;28;39433;-76
2023/01/10 03:59:32;;;;;;;15.50;2.65;;;;;;;-146.25;100.00;52508.09;2072456;28;20039;-76
2023/01/10 04:00:34;;;;;;;17.98;2.20;;;;;;;-146.25;100.00;52489.84;2071215;28;41675;-76
2023/01/10 04:01:38;;;;;;;17.23;2.17;;;;;;;-146.25;100.00;52481.75;2072313;28;20027;-76
2023/01/10 04:02:41;;;;;;;13.63;2.53;;;;;;;-146.25;100.00;52475.66;2072267;28;23406;-77
2023/01/10 04:03:42;;;;;;;15.80;1.85;;;;;;;-146.25;100.00;52506.06;2072057;28;40929;-74
2023/01/10 04:04:44;;;;;;;19.00;2.90;;;;;;;-146.25;100.00;52514.19;2072045;28;20177;-75
2023/01/10 04:05:46;;;;;;;18.65;2.92;;;;;;;-146.25;100.00;52469.56;2071544;28;42588;-75
2023/01/10 04:06:47;;;;;;;15.15;2.78;;;;;;;-146.25;100.00;52510.13;2071866;28;37528;-75
2023/01/10 04:07:49;;;;;;;16.80;2.67;;;;;;;-146.25;100.00;52514.19;2075531;28;39037;-74
2023/01/10 04:08:51;;;;;;;18.40;2.53;;;;;;;-146.25;100.00;52530.41;2078964;28;42383;-74
2023/01/10 04:09:53;;;;;;;17.65;2.50;;;;;;;-146.25;100.00;52536.50;2080642;28;20847;-75
2023/01/10 04:10:55;;;;;;;17.05;2.40;;;;;;;-146.25;100.00;52502.03;2080811;28;39367;-75
2023/01/10 04:11:56;;;;;;;18.23;2.55;;;;;;;-146.25;100.00;52483.78;2079637;28;38803;-75
2023/01/10 04:13:01;;;;;;;20.30;3.08;;;;;;;-146.25;100.00;52495.94;2079324;28;39678;-75
2023/01/10 04:14:03;;;;;;;17.00;2.75;;;;;;;-146.25;100.00;52469.56;2080675;28;38999;-75
2023/01/10 04:15:06;;;;;;;18.85;2.92;;;;;;;-146.25;100.00;52510.13;2079017;28;41289;-75
2023/01/10 04:16:12;;;;;;;25.95;2.92;;;;;;;-146.25;100.00;52495.94;2081029;28;20903;-74
2023/01/10 04:17:17;;;;;;;23.27;2.75;;;;;;;-146.25;100.00;52500.00;2080179;28;40722;-74
2023/01/10 04:18:18;;;;;;;16.55;2.83;;;;;;;-146.25;100.00;52518.25;2079759;28;34937;-73
2023/01/10 04:19:20;;;;;;;14.98;2.67;;;;;;;-146.25;100.00;52504.03;2080155;28;20046;-74
2023/01/10 04:20:26;;;;;;;14.15;2.92;;;;;;;-146.25;100.00;52504.03;2079090;28;42102;-75
2023/01/10 04:21:27;;;;;;;21.35;3.25;;;;;;;-146.25;100.00;52510.13;2072000;28;20511;-74
2023/01/10 04:22:29;;;;;;;25.50;3.72;;;;;;;-146.25;100.00;52461.47;2079602;28;40285;-74
2023/01/10 04:23:32;;;;;;;19.33;3.22;;;;;;;-146.25;100.00;52483.78;2080558;28;20081;-73
2023/01/10 04:24:33;;;;;;;20.35;3.25;;;;;;;-146.25;100.00;52522.28;2080160;28;39556;-73
2023/01/10 04:25:35;;;;;;;17.98;3.10;;;;;;;-146.25;100.00;52497.97;2080036;28;36404;-74
2023/01/10 04:26:38;;;;;;;22.92;3.60;;;;;;;-146.25;100.00;52504.03;2080950;28;20049;-75
2023/01/10 04:27:39;;;;;;;21.83;3.38;;;;;;;-146.25;100.00;52487.81;2079062;28;41385;-74
2023/01/10 04:28:43;;;;;;;22.23;3.25;;;;;;;-146.25;100.00;52536.50;2079633;28;41137;-75
2023/01/10 04:29:46;;;;;;;15.25;3.25;;;;;;;-146.25;100.00;52489.84;2079291;28;37075;-75
2023/01/10 04:30:47;;;;;;;24.48;3.33;;;;;;;-146.25;100.00;52522.28;2079537;28;40652;-76
2023/01/10 04:31:49;;;;;;;19.27;3.60;;;;;;;-146.25;100.00;52497.97;2079246;28;38002;-75
2023/01/10 04:32:51;;;;;;;18.55;3.67;;;;;;;-146.25;100.00;52522.28;2079589;28;39692;-74
2023/01/10 04:33:53;;;;;;;21.52;3.28;;;;;;;-146.25;100.00;52516.22;2079940;28;41268;-74
2023/01/10 04:34:54;;;;;;;18.98;3.53;;;;;;;-146.25;100.00;52481.75;2080163;28;37996;-75
2023/01/10 04:35:56;;;;;;;16.45;3.30;;;;;;;-146.25;100.00;52542.56;2079710;28;41789;-75
2023/01/10 04:37:00;;;;;;;22.83;3.70;;;;;;;-146.25;100.00;52526.34;2079107;28;38620;-75
2023/01/10 04:38:02;;;;;;;20.23;3.70;;;;;;;-146.25;100.00;52530.41;2079104;28;36545;-75
2023/01/10 04:39:06;;;;;;;16.20;3.15;;;;;;;-146.25;100.00;52489.84;2080389;28;37255;-76
2023/01/10 04:40:12;;;;;;;19.15;3.67;;;;;;;-146.25;100.00;52550.69;2079887;28;40553;-76
2023/01/10 04:41:13;;;;;;;24.40;3.15;;;;;;;-146.25;100.00;52510.13;2079738;28;37268;-76
2023/01/10 04:42:16;;;;;;;24.15;3.63;;;;;;;-146.25;100.00;52489.84;2079007;28;45238;-76
2023/01/10 04:43:18;;;;;;;20.02;4.00;;;;;;;-146.25;100.00;52493.91;2079712;28;37513;-75
2023/01/10 04:44:20;;;;;;;20.30;3.72;;;;;;;-146.25;100.00;52516.22;2079569;28;28856;-75
2023/01/10 04:45:21;;;;;;;18.63;3.53;;;;;;;-146.25;100.00;52510.13;2079233;28;42796;-75
2023/01/10 04:46:23;;;;;;;17.67;3.05;;;;;;;-146.25;100.00;52475.66;2079546;28;36708;-76
2023/01/10 04:47:25;;;;;;;24.13;3.42;;;;;;;-146.25;100.00;52550.69;2079292;28;41847;-75
2023/01/10 04:48:26;;;;;;;20.98;3.22;;;;;;;-146.25;100.00;52530.41;2080093;28;37876;-75
2023/01/10 04:49:28;;;;;;;17.42;2.75;;;;;;;-146.25;100.00;52489.84;2080538;28;38510;-75
2023/01/10 04:50:30;;;;;;;18.58;3.47;;;;;;;-146.25;100.00;52518.25;2079762;28;40799;-75
2023/01/10 04:51:35;;;;;;;14.57;3.67;;;;;;;-146.25;100.00;52530.41;2079957;28;42427;-75
2023/01/10 04:52:36;;;;;;;14.27;2.75;;;;;;;-146.25;100.00;52508.09;2079129;28;37403;-76
2023/01/10 04:53:38;;;;;;;17.23;3.53;;;;;;;-146.25;100.00;52502.03;2079737;28;42225;-76
2023/01/10 04:54:40;;;;;;;25.08;3.22;;;;;;;-146.25;100.00;52479.72;2078776;28;39691;-75
2023/01/10 04:55:41;;;;;;;16.10;3.05;;;;;;;-146.25;100.00;52522.28;2078795;28;37231;-74
2023/01/10 04:56:43;;;;;;;23.33;3.10;;;;;;;-146.25;100.00;52504.03;2080044;28;36477;-74
2023/01/10 04:57:47;;;;;;;15.63;2.72;;;;;;;-146.25;100.00;52522.28;2080867;28;20038;-75
2023/01/10 04:58:49;;;;;;;20.30;3.00;;;;;;;-146.25;100.00;52502.03;2080084;28;36240;-75
2023/01/10 04:59:54;;;;;;;24.05;3.13;;;;;;;-146.25;100.00;52493.91;2079431;28;41186;-75
2023/01/10 05:00:55;;;;;;;15.23;3.08;;;;;;;-146.25;100.00;52524.31;2078744;28;39473;-75
2023/01/10 05:01:57;;;;;;;27.40;2.80;;;;;;;-146.25;100.00;52530.41;2080643;28;40940;-75
2023/01/10 05:02:59;;;;;;;21.60;3.00;;;;;;;-146.25;100.00;52495.94;2078975;28;42220;-75
2023/01/10 05:04:02;;;;;;;17.90;2.97;;;;;;;-146.25;100.00;52481.75;2070852;28;27507;-76
2023/01/10 05:05:04;;;;;;;16.30;3.15;;;;;;;-146.25;100.00;52514.19;2079405;28;33608;-74
2023/01/10 05:06:06;;;;;;;25.27;3.42;;;;;;;-146.25;100.00;52489.84;2080101;28;37882;-75
2023/01/10 05:07:08;;;;;;;20.45;3.38;;;;;;;-146.25;100.00;52542.56;2079082;28;38814;-76
2023/01/10 05:08:13;;;;;;;22.50;3.72;;;;;;;-146.25;100.00;52487.81;2079844;28;20884;-74
2023/01/10 05:09:14;;;;;;;20.98;3.05;;;;;;;-146.25;100.00;52518.25;2079887;28;36250;-75
2023/01/10 05:10:16;;;;;;;21.98;3.45;;;;;;;-146.25;100.00;52518.25;2079875;28;39391;-74
2023/01/10 05:11:18;;;;;;;20.65;3.05;;;;;;;-146.25;100.00;52522.28;2079423;28;34955;-77
2023/01/10 05:12:20;;;;;;;23.80;3.38;;;;;;;-146.25;100.00;52546.63;2080119;28;20050;-76
2023/01/10 05:13:21;;;;;;;17.45;3.08;;;;;;;-146.25;100.00;52562.84;2071124;28;39166;-75